sensor_id;sensor_type;location;lat;lon;timestamp;P1;durP1;ratioP1;P2;durP2;ratioP2
66521;SDS011;53349;53.538;8.584;2023-04-09T00:01:55;75.80;;;33.10;;
66521;SDS011;53349;53.538;8.584;2023-04-09T00:04:22;80.50;;;34.57;;
66521;SDS011;53349;53.538;8.584;2023-04-09T00:06:51;79.38;;;34.53;;
66521;SDS011;53349;53.538;8.584;2023-04-09T00:09:17;76.73;;;34.33;;
66521;SDS011;53349;53.538;8.584;2023-04-09T00:11:43;77.97;;;33.13;;
66521;SDS011;53349;53.538;8.584;2023-04-09T00:14:11;80.25;;;34.17;;
66521;SDS011;53349;53.538;8.584;2023-04-09T00:16:38;78.35;;;33.95;;
66521;SDS011;53349;53.538;8.584;2023-04-09T00:19:04;77.72;;;34.10;;
66521;SDS011;53349;53.538;8.584;2023-04-09T00:21:29;82.30;;;35.23;;
66521;SDS011;53349;53.538;8.584;2023-04-09T00:23:54;83.50;;;34.97;;
66521;SDS011;53349;53.538;8.584;2023-04-09T00:26:19;78.37;;;32.20;;
66521;SDS011;53349;53.538;8.584;2023-04-09T00:28:45;74.80;;;32.47;;
66521;SDS011;53349;53.538;8.584;2023-04-09T00:31:10;78.40;;;35.00;;
66521;SDS011;53349;53.538;8.584;2023-04-09T00:33:35;79.00;;;33.43;;
66521;SDS011;53349;53.538;8.584;2023-04-09T00:36:00;82.13;;;34.70;;
66521;SDS011;53349;53.538;8.584;2023-04-09T00:38:26;71.10;;;32.93;;
66521;SDS011;53349;53.538;8.584;2023-04-09T00:40:51;74.17;;;33.23;;
66521;SDS011;53349;53.538;8.584;2023-04-09T00:43:16;78.07;;;31.57;;
66521;SDS011;53349;53.538;8.584;2023-04-09T00:45:42;76.90;;;33.23;;
66521;SDS011;53349;53.538;8.584;2023-04-09T00:48:08;78.03;;;34.30;;
66521;SDS011;53349;53.538;8.584;2023-04-09T00:50:34;76.43;;;34.45;;
66521;SDS011;53349;53.538;8.584;2023-04-09T00:53:00;83.87;;;34.47;;
66521;SDS011;53349;53.538;8.584;2023-04-09T00:55:25;83.37;;;35.27;;
66521;SDS011;53349;53.538;8.584;2023-04-09T00:57:50;79.05;;;35.85;;
66521;SDS011;53349;53.538;8.584;2023-04-09T01:00:16;82.50;;;35.33;;
66521;SDS011;53349;53.538;8.584;2023-04-09T01:02:41;83.80;;;37.37;;
66521;SDS011;53349;53.538;8.584;2023-04-09T01:05:07;81.20;;;36.33;;
66521;SDS011;53349;53.538;8.584;2023-04-09T01:07:55;82.67;;;36.70;;
66521;SDS011;53349;53.538;8.584;2023-04-09T01:10:42;81.60;;;35.58;;
66521;SDS011;53349;53.538;8.584;2023-04-09T01:16:11;74.72;;;32.80;;
66521;SDS011;53349;53.538;8.584;2023-04-09T01:18:55;77.93;;;33.40;;
66521;SDS011;53349;53.538;8.584;2023-04-09T01:21:28;73.73;;;32.67;;
66521;SDS011;53349;53.538;8.584;2023-04-09T01:29:25;72.75;;;32.00;;
66521;SDS011;53349;53.538;8.584;2023-04-09T01:31:55;76.30;;;34.10;;
66521;SDS011;53349;53.538;8.584;2023-04-09T01:34:22;71.80;;;31.83;;
66521;SDS011;53349;53.538;8.584;2023-04-09T01:36:51;70.53;;;31.45;;
66521;SDS011;53349;53.538;8.584;2023-04-09T01:39:18;70.20;;;32.03;;
66521;SDS011;53349;53.538;8.584;2023-04-09T01:41:44;67.63;;;31.00;;
66521;SDS011;53349;53.538;8.584;2023-04-09T01:44:10;72.05;;;32.80;;
66521;SDS011;53349;53.538;8.584;2023-04-09T01:46:37;71.50;;;33.30;;
66521;SDS011;53349;53.538;8.584;2023-04-09T01:49:03;73.22;;;33.53;;
66521;SDS011;53349;53.538;8.584;2023-04-09T01:51:29;73.95;;;32.63;;
66521;SDS011;53349;53.538;8.584;2023-04-09T01:53:56;76.45;;;34.38;;
66521;SDS011;53349;53.538;8.584;2023-04-09T01:56:23;73.57;;;34.80;;
66521;SDS011;53349;53.538;8.584;2023-04-09T01:58:48;74.73;;;35.27;;
66521;SDS011;53349;53.538;8.584;2023-04-09T02:01:28;73.70;;;33.50;;
66521;SDS011;53349;53.538;8.584;2023-04-09T02:04:01;76.38;;;33.90;;
66521;SDS011;53349;53.538;8.584;2023-04-09T02:09:09;80.25;;;35.78;;
66521;SDS011;53349;53.538;8.584;2023-04-09T02:11:37;79.90;;;36.10;;
66521;SDS011;53349;53.538;8.584;2023-04-09T02:14:05;81.68;;;35.95;;
66521;SDS011;53349;53.538;8.584;2023-04-09T02:16:31;82.90;;;36.67;;
66521;SDS011;53349;53.538;8.584;2023-04-09T02:18:57;79.10;;;36.92;;
66521;SDS011;53349;53.538;8.584;2023-04-09T02:21:26;82.27;;;37.37;;
66521;SDS011;53349;53.538;8.584;2023-04-09T02:23:52;81.68;;;37.83;;
66521;SDS011;53349;53.538;8.584;2023-04-09T02:26:17;84.17;;;37.97;;
66521;SDS011;53349;53.538;8.584;2023-04-09T02:28:44;86.83;;;39.43;;
66521;SDS011;53349;53.538;8.584;2023-04-09T02:31:10;91.05;;;40.15;;
66521;SDS011;53349;53.538;8.584;2023-04-09T02:33:36;86.23;;;39.03;;
66521;SDS011;53349;53.538;8.584;2023-04-09T02:36:02;83.90;;;37.83;;
66521;SDS011;53349;53.538;8.584;2023-04-09T02:38:28;83.43;;;39.13;;
66521;SDS011;53349;53.538;8.584;2023-04-09T02:40:53;80.82;;;37.35;;
66521;SDS011;53349;53.538;8.584;2023-04-09T02:43:20;83.88;;;38.22;;
66521;SDS011;53349;53.538;8.584;2023-04-09T02:45:45;89.40;;;40.20;;
66521;SDS011;53349;53.538;8.584;2023-04-09T02:48:11;90.70;;;41.05;;
66521;SDS011;53349;53.538;8.584;2023-04-09T02:50:36;91.00;;;40.57;;
66521;SDS011;53349;53.538;8.584;2023-04-09T02:53:01;87.97;;;40.77;;
66521;SDS011;53349;53.538;8.584;2023-04-09T02:55:27;89.73;;;41.27;;
66521;SDS011;53349;53.538;8.584;2023-04-09T02:57:52;95.17;;;42.23;;
66521;SDS011;53349;53.538;8.584;2023-04-09T03:00:19;88.38;;;41.95;;
66521;SDS011;53349;53.538;8.584;2023-04-09T03:02:45;91.10;;;41.25;;
66521;SDS011;53349;53.538;8.584;2023-04-09T03:05:10;93.23;;;42.70;;
66521;SDS011;53349;53.538;8.584;2023-04-09T03:07:35;95.97;;;42.03;;
66521;SDS011;53349;53.538;8.584;2023-04-09T03:10:00;101.00;;;43.63;;
66521;SDS011;53349;53.538;8.584;2023-04-09T03:12:26;96.47;;;42.70;;
66521;SDS011;53349;53.538;8.584;2023-04-09T03:14:51;98.67;;;44.60;;
66521;SDS011;53349;53.538;8.584;2023-04-09T03:17:17;94.78;;;44.17;;
66521;SDS011;53349;53.538;8.584;2023-04-09T03:19:42;97.80;;;44.37;;
66521;SDS011;53349;53.538;8.584;2023-04-09T03:22:09;104.65;;;46.80;;
66521;SDS011;53349;53.538;8.584;2023-04-09T03:24:34;95.78;;;44.08;;
66521;SDS011;53349;53.538;8.584;2023-04-09T03:27:04;98.07;;;44.33;;
66521;SDS011;53349;53.538;8.584;2023-04-09T03:29:30;97.90;;;44.67;;
66521;SDS011;53349;53.538;8.584;2023-04-09T03:31:55;100.73;;;46.67;;
66521;SDS011;53349;53.538;8.584;2023-04-09T03:34:22;101.23;;;45.17;;
66521;SDS011;53349;53.538;8.584;2023-04-09T03:36:47;96.45;;;45.15;;
66521;SDS011;53349;53.538;8.584;2023-04-09T03:39:13;98.27;;;46.70;;
66521;SDS011;53349;53.538;8.584;2023-04-09T03:41:39;97.80;;;46.73;;
66521;SDS011;53349;53.538;8.584;2023-04-09T03:44:04;99.50;;;45.50;;
66521;SDS011;53349;53.538;8.584;2023-04-09T03:46:29;98.93;;;45.20;;
66521;SDS011;53349;53.538;8.584;2023-04-09T03:48:55;101.60;;;46.17;;
66521;SDS011;53349;53.538;8.584;2023-04-09T03:51:21;104.47;;;48.67;;
66521;SDS011;53349;53.538;8.584;2023-04-09T03:53:46;100.10;;;45.90;;
66521;SDS011;53349;53.538;8.584;2023-04-09T03:56:12;101.87;;;46.57;;
66521;SDS011;53349;53.538;8.584;2023-04-09T03:58:37;96.20;;;46.87;;
66521;SDS011;53349;53.538;8.584;2023-04-09T04:01:02;98.93;;;48.30;;
66521;SDS011;53349;53.538;8.584;2023-04-09T04:03:28;103.17;;;49.20;;
66521;SDS011;53349;53.538;8.584;2023-04-09T04:06:03;98.43;;;46.97;;
66521;SDS011;53349;53.538;8.584;2023-04-09T04:08:29;103.15;;;49.05;;
66521;SDS011;53349;53.538;8.584;2023-04-09T04:10:55;110.20;;;49.40;;
66521;SDS011;53349;53.538;8.584;2023-04-09T04:13:21;106.15;;;49.67;;
66521;SDS011;53349;53.538;8.584;2023-04-09T04:15:46;109.13;;;48.60;;
66521;SDS011;53349;53.538;8.584;2023-04-09T04:18:11;106.07;;;48.97;;
66521;SDS011;53349;53.538;8.584;2023-04-09T04:20:37;105.97;;;49.20;;
66521;SDS011;53349;53.538;8.584;2023-04-09T04:23:03;111.27;;;51.73;;
66521;SDS011;53349;53.538;8.584;2023-04-09T04:25:28;111.30;;;49.83;;
66521;SDS011;53349;53.538;8.584;2023-04-09T04:27:54;105.57;;;48.83;;
66521;SDS011;53349;53.538;8.584;2023-04-09T04:30:20;106.53;;;48.73;;
66521;SDS011;53349;53.538;8.584;2023-04-09T04:32:46;105.90;;;50.78;;
66521;SDS011;53349;53.538;8.584;2023-04-09T04:35:11;105.13;;;48.30;;
66521;SDS011;53349;53.538;8.584;2023-04-09T04:37:36;106.50;;;47.33;;
66521;SDS011;53349;53.538;8.584;2023-04-09T04:40:02;110.43;;;48.47;;
66521;SDS011;53349;53.538;8.584;2023-04-09T04:42:28;104.87;;;48.20;;
66521;SDS011;53349;53.538;8.584;2023-04-09T04:44:53;105.82;;;46.78;;
66521;SDS011;53349;53.538;8.584;2023-04-09T04:47:18;104.40;;;47.13;;
66521;SDS011;53349;53.538;8.584;2023-04-09T04:49:44;103.00;;;46.93;;
66521;SDS011;53349;53.538;8.584;2023-04-09T04:52:09;101.93;;;46.97;;
66521;SDS011;53349;53.538;8.584;2023-04-09T04:54:34;108.40;;;47.87;;
66521;SDS011;53349;53.538;8.584;2023-04-09T04:56:59;104.87;;;48.53;;
66521;SDS011;53349;53.538;8.584;2023-04-09T04:59:25;102.60;;;46.80;;
66521;SDS011;53349;53.538;8.584;2023-04-09T05:01:50;111.17;;;48.73;;
66521;SDS011;53349;53.538;8.584;2023-04-09T05:04:15;105.10;;;49.70;;
66521;SDS011;53349;53.538;8.584;2023-04-09T05:06:42;105.70;;;46.60;;
66521;SDS011;53349;53.538;8.584;2023-04-09T05:09:07;104.47;;;45.13;;
66521;SDS011;53349;53.538;8.584;2023-04-09T05:11:32;100.53;;;45.73;;
66521;SDS011;53349;53.538;8.584;2023-04-09T05:13:58;100.17;;;44.07;;
66521;SDS011;53349;53.538;8.584;2023-04-09T05:16:23;106.30;;;45.47;;
66521;SDS011;53349;53.538;8.584;2023-04-09T05:18:49;104.20;;;45.38;;
66521;SDS011;53349;53.538;8.584;2023-04-09T05:21:15;106.67;;;44.23;;
66521;SDS011;53349;53.538;8.584;2023-04-09T05:23:40;100.13;;;43.73;;
66521;SDS011;53349;53.538;8.584;2023-04-09T05:26:06;106.47;;;44.67;;
66521;SDS011;53349;53.538;8.584;2023-04-09T05:28:32;103.33;;;44.90;;
66521;SDS011;53349;53.538;8.584;2023-04-09T05:30:57;98.93;;;41.77;;
66521;SDS011;53349;53.538;8.584;2023-04-09T05:33:22;97.83;;;43.60;;
66521;SDS011;53349;53.538;8.584;2023-04-09T05:35:50;99.45;;;43.65;;
66521;SDS011;53349;53.538;8.584;2023-04-09T05:38:15;97.80;;;41.88;;
66521;SDS011;53349;53.538;8.584;2023-04-09T05:40:41;98.03;;;41.57;;
66521;SDS011;53349;53.538;8.584;2023-04-09T05:43:06;97.07;;;41.10;;
66521;SDS011;53349;53.538;8.584;2023-04-09T05:45:31;88.80;;;39.30;;
66521;SDS011;53349;53.538;8.584;2023-04-09T05:47:56;92.37;;;37.93;;
66521;SDS011;53349;53.538;8.584;2023-04-09T05:50:22;82.70;;;36.57;;
66521;SDS011;53349;53.538;8.584;2023-04-09T05:52:47;82.07;;;35.67;;
66521;SDS011;53349;53.538;8.584;2023-04-09T05:55:13;84.20;;;36.13;;
66521;SDS011;53349;53.538;8.584;2023-04-09T05:57:39;81.73;;;35.33;;
66521;SDS011;53349;53.538;8.584;2023-04-09T06:00:07;81.53;;;35.42;;
66521;SDS011;53349;53.538;8.584;2023-04-09T06:02:32;83.33;;;36.50;;
66521;SDS011;53349;53.538;8.584;2023-04-09T06:04:59;74.23;;;33.43;;
66521;SDS011;53349;53.538;8.584;2023-04-09T06:07:25;82.15;;;34.50;;
66521;SDS011;53349;53.538;8.584;2023-04-09T06:09:50;80.23;;;34.63;;
66521;SDS011;53349;53.538;8.584;2023-04-09T06:12:16;78.93;;;34.17;;
66521;SDS011;53349;53.538;8.584;2023-04-09T06:14:41;80.90;;;34.37;;
66521;SDS011;53349;53.538;8.584;2023-04-09T06:17:06;79.70;;;32.43;;
66521;SDS011;53349;53.538;8.584;2023-04-09T06:19:32;65.53;;;26.93;;
66521;SDS011;53349;53.538;8.584;2023-04-09T06:21:57;51.75;;;23.15;;
66521;SDS011;53349;53.538;8.584;2023-04-09T06:24:22;58.13;;;24.60;;
66521;SDS011;53349;53.538;8.584;2023-04-09T06:26:48;60.53;;;24.93;;
66521;SDS011;53349;53.538;8.584;2023-04-09T06:29:17;59.63;;;23.23;;
66521;SDS011;53349;53.538;8.584;2023-04-09T06:31:42;59.90;;;24.48;;
66521;SDS011;53349;53.538;8.584;2023-04-09T06:34:08;51.60;;;21.83;;
66521;SDS011;53349;53.538;8.584;2023-04-09T06:36:33;50.10;;;20.13;;
66521;SDS011;53349;53.538;8.584;2023-04-09T06:38:58;48.30;;;19.60;;
66521;SDS011;53349;53.538;8.584;2023-04-09T06:41:24;50.60;;;21.07;;
66521;SDS011;53349;53.538;8.584;2023-04-09T06:43:50;50.75;;;20.70;;
66521;SDS011;53349;53.538;8.584;2023-04-09T06:46:15;49.17;;;20.10;;
66521;SDS011;53349;53.538;8.584;2023-04-09T06:48:42;48.13;;;20.50;;
66521;SDS011;53349;53.538;8.584;2023-04-09T06:51:08;49.75;;;19.63;;
66521;SDS011;53349;53.538;8.584;2023-04-09T06:53:33;48.57;;;19.50;;
66521;SDS011;53349;53.538;8.584;2023-04-09T06:56:01;47.27;;;18.27;;
66521;SDS011;53349;53.538;8.584;2023-04-09T06:58:28;39.83;;;16.77;;
66521;SDS011;53349;53.538;8.584;2023-04-09T07:01:14;39.58;;;16.42;;
66521;SDS011;53349;53.538;8.584;2023-04-09T07:03:40;40.92;;;16.20;;
66521;SDS011;53349;53.538;8.584;2023-04-09T07:06:06;38.42;;;16.13;;
66521;SDS011;53349;53.538;8.584;2023-04-09T07:08:32;40.83;;;16.67;;
66521;SDS011;53349;53.538;8.584;2023-04-09T07:10:57;41.17;;;16.25;;
66521;SDS011;53349;53.538;8.584;2023-04-09T07:13:22;39.70;;;15.93;;
66521;SDS011;53349;53.538;8.584;2023-04-09T07:15:48;41.67;;;16.07;;
66521;SDS011;53349;53.538;8.584;2023-04-09T07:18:13;38.77;;;15.97;;
66521;SDS011;53349;53.538;8.584;2023-04-09T07:20:38;40.60;;;16.10;;
66521;SDS011;53349;53.538;8.584;2023-04-09T07:23:03;40.27;;;15.73;;
66521;SDS011;53349;53.538;8.584;2023-04-09T07:25:29;35.90;;;14.97;;
66521;SDS011;53349;53.538;8.584;2023-04-09T07:27:54;35.45;;;14.27;;
66521;SDS011;53349;53.538;8.584;2023-04-09T07:30:20;34.60;;;13.97;;
66521;SDS011;53349;53.538;8.584;2023-04-09T07:32:46;33.92;;;13.90;;
66521;SDS011;53349;53.538;8.584;2023-04-09T07:35:14;35.03;;;14.75;;
66521;SDS011;53349;53.538;8.584;2023-04-09T07:37:39;32.90;;;14.03;;
66521;SDS011;53349;53.538;8.584;2023-04-09T07:40:08;35.63;;;13.48;;
66521;SDS011;53349;53.538;8.584;2023-04-09T07:42:35;31.13;;;12.70;;
66521;SDS011;53349;53.538;8.584;2023-04-09T07:45:01;29.10;;;12.50;;
66521;SDS011;53349;53.538;8.584;2023-04-09T07:47:26;32.73;;;12.63;;
66521;SDS011;53349;53.538;8.584;2023-04-09T07:49:52;31.17;;;12.83;;
66521;SDS011;53349;53.538;8.584;2023-04-09T07:52:19;33.35;;;13.52;;
66521;SDS011;53349;53.538;8.584;2023-04-09T07:54:44;32.60;;;13.80;;
66521;SDS011;53349;53.538;8.584;2023-04-09T07:57:09;34.60;;;14.50;;
66521;SDS011;53349;53.538;8.584;2023-04-09T07:59:35;34.17;;;13.53;;
66521;SDS011;53349;53.538;8.584;2023-04-09T08:02:02;35.67;;;13.70;;
66521;SDS011;53349;53.538;8.584;2023-04-09T08:04:28;33.50;;;13.10;;
66521;SDS011;53349;53.538;8.584;2023-04-09T08:06:55;31.58;;;13.07;;
66521;SDS011;53349;53.538;8.584;2023-04-09T08:09:20;29.03;;;13.03;;
66521;SDS011;53349;53.538;8.584;2023-04-09T08:11:46;31.70;;;12.57;;
66521;SDS011;53349;53.538;8.584;2023-04-09T08:14:13;33.08;;;12.82;;
66521;SDS011;53349;53.538;8.584;2023-04-09T08:16:39;33.38;;;13.82;;
66521;SDS011;53349;53.538;8.584;2023-04-09T08:19:04;31.48;;;12.90;;
66521;SDS011;53349;53.538;8.584;2023-04-09T08:21:30;30.73;;;12.17;;
66521;SDS011;53349;53.538;8.584;2023-04-09T08:23:55;28.20;;;11.63;;
66521;SDS011;53349;53.538;8.584;2023-04-09T08:26:21;32.17;;;12.57;;
66521;SDS011;53349;53.538;8.584;2023-04-09T08:28:46;33.30;;;13.93;;
66521;SDS011;53349;53.538;8.584;2023-04-09T08:31:11;31.70;;;12.90;;
66521;SDS011;53349;53.538;8.584;2023-04-09T08:33:36;28.90;;;11.87;;
66521;SDS011;53349;53.538;8.584;2023-04-09T08:36:06;33.85;;;12.35;;
66521;SDS011;53349;53.538;8.584;2023-04-09T08:38:32;31.97;;;12.37;;
66521;SDS011;53349;53.538;8.584;2023-04-09T08:40:58;30.48;;;12.95;;
66521;SDS011;53349;53.538;8.584;2023-04-09T08:43:24;31.15;;;13.20;;
66521;SDS011;53349;53.538;8.584;2023-04-09T08:45:51;33.90;;;13.33;;
66521;SDS011;53349;53.538;8.584;2023-04-09T08:48:17;30.33;;;11.90;;
66521;SDS011;53349;53.538;8.584;2023-04-09T08:50:43;31.00;;;12.23;;
66521;SDS011;53349;53.538;8.584;2023-04-09T08:53:09;29.42;;;11.20;;
66521;SDS011;53349;53.538;8.584;2023-04-09T08:55:36;31.63;;;11.88;;
66521;SDS011;53349;53.538;8.584;2023-04-09T08:58:06;27.83;;;11.77;;
66521;SDS011;53349;53.538;8.584;2023-04-09T09:00:34;28.13;;;11.48;;
66521;SDS011;53349;53.538;8.584;2023-04-09T09:03:03;28.43;;;11.77;;
66521;SDS011;53349;53.538;8.584;2023-04-09T09:08:06;28.42;;;11.10;;
66521;SDS011;53349;53.538;8.584;2023-04-09T09:10:38;27.67;;;11.20;;
66521;SDS011;53349;53.538;8.584;2023-04-09T09:13:18;29.50;;;11.63;;
66521;SDS011;53349;53.538;8.584;2023-04-09T09:15:51;28.70;;;11.10;;
66521;SDS011;53349;53.538;8.584;2023-04-09T09:18:18;25.35;;;11.25;;
66521;SDS011;53349;53.538;8.584;2023-04-09T09:20:43;26.97;;;11.50;;
66521;SDS011;53349;53.538;8.584;2023-04-09T09:23:09;27.67;;;10.67;;
66521;SDS011;53349;53.538;8.584;2023-04-09T09:25:37;28.02;;;11.05;;
66521;SDS011;53349;53.538;8.584;2023-04-09T09:28:10;23.42;;;11.25;;
66521;SDS011;53349;53.538;8.584;2023-04-09T09:30:37;24.25;;;11.00;;
66521;SDS011;53349;53.538;8.584;2023-04-09T09:33:05;25.83;;;11.77;;
66521;SDS011;53349;53.538;8.584;2023-04-09T09:35:53;26.75;;;11.30;;
66521;SDS011;53349;53.538;8.584;2023-04-09T09:38:18;26.88;;;11.60;;
66521;SDS011;53349;53.538;8.584;2023-04-09T09:40:48;25.13;;;10.55;;
66521;SDS011;53349;53.538;8.584;2023-04-09T09:43:14;28.00;;;11.80;;
66521;SDS011;53349;53.538;8.584;2023-04-09T09:45:39;26.52;;;11.25;;
66521;SDS011;53349;53.538;8.584;2023-04-09T09:48:05;23.93;;;11.30;;
66521;SDS011;53349;53.538;8.584;2023-04-09T09:50:31;26.33;;;12.02;;
66521;SDS011;53349;53.538;8.584;2023-04-09T09:53:01;26.15;;;11.75;;
66521;SDS011;53349;53.538;8.584;2023-04-09T09:55:29;26.60;;;11.70;;
66521;SDS011;53349;53.538;8.584;2023-04-09T09:58:16;28.43;;;12.00;;
66521;SDS011;53349;53.538;8.584;2023-04-09T10:00:46;29.05;;;13.25;;
66521;SDS011;53349;53.538;8.584;2023-04-09T10:03:19;26.23;;;11.80;;
66521;SDS011;53349;53.538;8.584;2023-04-09T10:05:47;27.75;;;12.55;;
66521;SDS011;53349;53.538;8.584;2023-04-09T10:08:14;29.30;;;12.77;;
66521;SDS011;53349;53.538;8.584;2023-04-09T10:10:39;24.43;;;12.00;;
66521;SDS011;53349;53.538;8.584;2023-04-09T10:13:08;27.50;;;11.88;;
66521;SDS011;53349;53.538;8.584;2023-04-09T10:15:41;25.95;;;12.10;;
66521;SDS011;53349;53.538;8.584;2023-04-09T10:18:07;27.42;;;12.13;;
66521;SDS011;53349;53.538;8.584;2023-04-09T10:20:45;28.10;;;12.43;;
66521;SDS011;53349;53.538;8.584;2023-04-09T10:23:35;30.70;;;13.48;;
66521;SDS011;53349;53.538;8.584;2023-04-09T10:26:03;27.73;;;12.82;;
66521;SDS011;53349;53.538;8.584;2023-04-09T10:28:29;29.55;;;13.05;;
66521;SDS011;53349;53.538;8.584;2023-04-09T10:30:56;28.50;;;12.50;;
66521;SDS011;53349;53.538;8.584;2023-04-09T10:33:25;26.17;;;13.30;;
66521;SDS011;53349;53.538;8.584;2023-04-09T10:35:55;26.80;;;13.43;;
66521;SDS011;53349;53.538;8.584;2023-04-09T10:38:35;25.20;;;12.03;;
66521;SDS011;53349;53.538;8.584;2023-04-09T10:43:40;29.40;;;13.27;;
66521;SDS011;53349;53.538;8.584;2023-04-09T10:46:06;26.07;;;12.37;;
66521;SDS011;53349;53.538;8.584;2023-04-09T10:48:48;24.20;;;11.98;;
66521;SDS011;53349;53.538;8.584;2023-04-09T10:51:19;26.27;;;12.30;;
66521;SDS011;53349;53.538;8.584;2023-04-09T10:53:44;26.58;;;12.95;;
66521;SDS011;53349;53.538;8.584;2023-04-09T10:56:13;27.23;;;12.47;;
66521;SDS011;53349;53.538;8.584;2023-04-09T10:58:39;27.35;;;13.02;;
66521;SDS011;53349;53.538;8.584;2023-04-09T11:01:04;29.93;;;13.60;;
66521;SDS011;53349;53.538;8.584;2023-04-09T11:03:31;25.40;;;12.35;;
66521;SDS011;53349;53.538;8.584;2023-04-09T11:06:07;24.27;;;12.93;;
66521;SDS011;53349;53.538;8.584;2023-04-09T11:08:38;26.13;;;13.50;;
66521;SDS011;53349;53.538;8.584;2023-04-09T11:11:03;26.73;;;13.23;;
66521;SDS011;53349;53.538;8.584;2023-04-09T11:13:32;27.05;;;13.68;;
66521;SDS011;53349;53.538;8.584;2023-04-09T11:15:58;25.87;;;12.50;;
66521;SDS011;53349;53.538;8.584;2023-04-09T11:18:24;26.85;;;13.05;;
66521;SDS011;53349;53.538;8.584;2023-04-09T11:20:58;25.93;;;11.97;;
66521;SDS011;53349;53.538;8.584;2023-04-09T11:23:25;26.10;;;12.43;;
66521;SDS011;53349;53.538;8.584;2023-04-09T11:25:51;26.40;;;12.57;;
66521;SDS011;53349;53.538;8.584;2023-04-09T11:28:18;24.27;;;13.10;;
66521;SDS011;53349;53.538;8.584;2023-04-09T11:30:44;26.63;;;13.50;;
66521;SDS011;53349;53.538;8.584;2023-04-09T11:33:09;27.45;;;13.48;;
66521;SDS011;53349;53.538;8.584;2023-04-09T11:35:35;24.80;;;13.20;;
66521;SDS011;53349;53.538;8.584;2023-04-09T11:38:04;25.03;;;13.07;;
66521;SDS011;53349;53.538;8.584;2023-04-09T11:40:30;28.17;;;14.48;;
66521;SDS011;53349;53.538;8.584;2023-04-09T11:42:56;26.77;;;13.75;;
66521;SDS011;53349;53.538;8.584;2023-04-09T11:45:23;24.93;;;12.63;;
66521;SDS011;53349;53.538;8.584;2023-04-09T11:47:50;27.38;;;13.80;;
66521;SDS011;53349;53.538;8.584;2023-04-09T11:50:16;26.55;;;12.95;;
66521;SDS011;53349;53.538;8.584;2023-04-09T11:52:46;24.77;;;12.20;;
66521;SDS011;53349;53.538;8.584;2023-04-09T11:55:21;26.77;;;12.80;;
66521;SDS011;53349;53.538;8.584;2023-04-09T11:57:48;25.75;;;12.82;;
66521;SDS011;53349;53.538;8.584;2023-04-09T12:00:16;26.33;;;13.15;;
66521;SDS011;53349;53.538;8.584;2023-04-09T12:02:42;25.85;;;12.68;;
66521;SDS011;53349;53.538;8.584;2023-04-09T12:05:10;25.70;;;12.17;;
66521;SDS011;53349;53.538;8.584;2023-04-09T12:07:37;26.27;;;13.13;;
66521;SDS011;53349;53.538;8.584;2023-04-09T12:10:03;29.92;;;13.65;;
66521;SDS011;53349;53.538;8.584;2023-04-09T12:12:29;24.60;;;12.33;;
66521;SDS011;53349;53.538;8.584;2023-04-09T12:14:54;25.90;;;12.17;;
66521;SDS011;53349;53.538;8.584;2023-04-09T12:17:19;24.65;;;12.32;;
66521;SDS011;53349;53.538;8.584;2023-04-09T12:19:47;24.73;;;12.38;;
66521;SDS011;53349;53.538;8.584;2023-04-09T12:22:14;22.65;;;11.13;;
66521;SDS011;53349;53.538;8.584;2023-04-09T12:24:40;26.87;;;13.10;;
66521;SDS011;53349;53.538;8.584;2023-04-09T12:27:05;22.63;;;11.83;;
66521;SDS011;53349;53.538;8.584;2023-04-09T12:29:31;26.17;;;12.98;;
66521;SDS011;53349;53.538;8.584;2023-04-09T12:31:56;22.97;;;11.53;;
66521;SDS011;53349;53.538;8.584;2023-04-09T12:34:21;23.77;;;12.13;;
66521;SDS011;53349;53.538;8.584;2023-04-09T12:36:47;22.00;;;11.53;;
66521;SDS011;53349;53.538;8.584;2023-04-09T12:39:12;24.57;;;11.93;;
66521;SDS011;53349;53.538;8.584;2023-04-09T12:41:38;23.80;;;12.80;;
66521;SDS011;53349;53.538;8.584;2023-04-09T12:44:04;23.67;;;11.90;;
66521;SDS011;53349;53.538;8.584;2023-04-09T12:46:29;23.63;;;11.90;;
66521;SDS011;53349;53.538;8.584;2023-04-09T12:48:54;21.70;;;11.20;;
66521;SDS011;53349;53.538;8.584;2023-04-09T12:51:20;20.02;;;10.60;;
66521;SDS011;53349;53.538;8.584;2023-04-09T12:53:46;19.73;;;10.60;;
66521;SDS011;53349;53.538;8.584;2023-04-09T12:56:11;21.73;;;11.03;;
66521;SDS011;53349;53.538;8.584;2023-04-09T12:58:37;24.10;;;12.10;;
66521;SDS011;53349;53.538;8.584;2023-04-09T13:01:02;22.97;;;11.10;;
66521;SDS011;53349;53.538;8.584;2023-04-09T13:03:29;21.42;;;11.30;;
66521;SDS011;53349;53.538;8.584;2023-04-09T13:05:58;23.25;;;10.90;;
66521;SDS011;53349;53.538;8.584;2023-04-09T13:08:24;18.97;;;10.37;;
66521;SDS011;53349;53.538;8.584;2023-04-09T13:10:49;15.70;;;8.70;;
66521;SDS011;53349;53.538;8.584;2023-04-09T13:13:15;17.27;;;9.23;;
66521;SDS011;53349;53.538;8.584;2023-04-09T13:15:40;16.17;;;8.80;;
66521;SDS011;53349;53.538;8.584;2023-04-09T13:18:06;15.95;;;8.20;;
66521;SDS011;53349;53.538;8.584;2023-04-09T13:20:31;18.30;;;8.63;;
66521;SDS011;53349;53.538;8.584;2023-04-09T13:22:57;18.65;;;9.13;;
66521;SDS011;53349;53.538;8.584;2023-04-09T13:25:22;18.33;;;9.33;;
66521;SDS011;53349;53.538;8.584;2023-04-09T13:27:48;18.83;;;9.13;;
66521;SDS011;53349;53.538;8.584;2023-04-09T13:30:14;20.52;;;9.55;;
66521;SDS011;53349;53.538;8.584;2023-04-09T13:32:39;20.67;;;9.40;;
66521;SDS011;53349;53.538;8.584;2023-04-09T13:35:05;17.77;;;9.03;;
66521;SDS011;53349;53.538;8.584;2023-04-09T13:37:31;17.80;;;9.23;;
66521;SDS011;53349;53.538;8.584;2023-04-09T13:39:56;20.13;;;10.57;;
66521;SDS011;53349;53.538;8.584;2023-04-09T13:42:22;16.83;;;9.27;;
66521;SDS011;53349;53.538;8.584;2023-04-09T13:44:47;17.67;;;8.73;;
66521;SDS011;53349;53.538;8.584;2023-04-09T13:47:13;17.90;;;8.70;;
66521;SDS011;53349;53.538;8.584;2023-04-09T13:49:39;16.77;;;8.75;;
66521;SDS011;53349;53.538;8.584;2023-04-09T13:52:06;16.40;;;8.27;;
66521;SDS011;53349;53.538;8.584;2023-04-09T13:54:33;14.10;;;7.77;;
66521;SDS011;53349;53.538;8.584;2023-04-09T13:57:01;16.38;;;8.27;;
66521;SDS011;53349;53.538;8.584;2023-04-09T13:59:30;16.98;;;8.60;;
66521;SDS011;53349;53.538;8.584;2023-04-09T14:01:55;17.03;;;9.00;;
66521;SDS011;53349;53.538;8.584;2023-04-09T14:04:20;17.17;;;8.57;;
66521;SDS011;53349;53.538;8.584;2023-04-09T14:06:46;15.20;;;8.03;;
66521;SDS011;53349;53.538;8.584;2023-04-09T14:09:11;18.07;;;9.10;;
66521;SDS011;53349;53.538;8.584;2023-04-09T14:11:37;15.63;;;8.40;;
66521;SDS011;53349;53.538;8.584;2023-04-09T14:14:02;15.60;;;8.00;;
66521;SDS011;53349;53.538;8.584;2023-04-09T14:16:29;14.55;;;7.80;;
66521;SDS011;53349;53.538;8.584;2023-04-09T14:18:55;16.00;;;8.27;;
66521;SDS011;53349;53.538;8.584;2023-04-09T14:21:21;16.38;;;8.02;;
66521;SDS011;53349;53.538;8.584;2023-04-09T14:23:46;15.75;;;7.78;;
66521;SDS011;53349;53.538;8.584;2023-04-09T14:26:12;14.77;;;7.82;;
66521;SDS011;53349;53.538;8.584;2023-04-09T14:28:38;15.68;;;7.93;;
66521;SDS011;53349;53.538;8.584;2023-04-09T14:31:04;14.33;;;7.80;;
66521;SDS011;53349;53.538;8.584;2023-04-09T14:33:33;20.27;;;10.77;;
66521;SDS011;53349;53.538;8.584;2023-04-09T14:35:59;18.60;;;9.20;;